createdAt,value
2023-03-10T00:00:53.856Z,98684.66
2023-03-10T00:03:23.489Z,98682.88
2023-03-10T00:05:51.710Z,98687.25
2023-03-10T00:08:19.986Z,98711.31
2023-03-10T00:10:48.224Z,98694.25
2023-03-10T00:13:16.371Z,98705.47
2023-03-10T00:15:44.509Z,98705.31
2023-03-10T00:18:12.727Z,98707.91
2023-03-10T00:20:42.390Z,98723.53
2023-03-10T00:23:10.478Z,98724.31
2023-03-10T00:25:39.426Z,98735.72
2023-03-10T00:28:07.541Z,98743.03
2023-03-10T00:30:35.834Z,98740.25
2023-03-10T00:33:04.068Z,98760.41
2023-03-10T00:35:32.292Z,98752.78
2023-03-10T00:38:02.838Z,98769.50
2023-03-10T00:40:31.073Z,98758.94
2023-03-10T00:42:59.670Z,98794.38
2023-03-10T00:45:27.758Z,98790.47
2023-03-10T00:47:55.948Z,98798.59
2023-03-10T00:50:24.208Z,98807.50
2023-03-10T00:52:52.362Z,98810.44
2023-03-10T00:55:22.024Z,98824.09
2023-03-10T00:57:50.187Z,98841.81
2023-03-10T01:00:19.468Z,98863.25
2023-03-10T01:02:47.565Z,98865.88
2023-03-10T01:05:16.348Z,98903.69
2023-03-10T01:07:44.564Z,98885.81
2023-03-10T01:10:14.041Z,98886.31
2023-03-10T01:12:43.742Z,98886.19
2023-03-10T01:15:14.017Z,98901.28
2023-03-10T01:17:42.874Z,98924.16
2023-03-10T01:20:15.259Z,98948.50
2023-03-10T01:22:43.838Z,98975.16
2023-03-10T01:25:14.960Z,99024.88
2023-03-10T01:27:44.749Z,99041.22
2023-03-10T01:30:14.274Z,99056.81
2023-03-10T01:32:42.727Z,99056.81
2023-03-10T01:35:12.012Z,99069.00
2023-03-10T01:37:40.451Z,99069.19
2023-03-10T01:40:16.412Z,99082.81
2023-03-10T01:42:46.455Z,99091.59
2023-03-10T01:45:47.587Z,99107.00
2023-03-10T01:48:17.997Z,99120.00
2023-03-10T01:50:48.452Z,99129.47
2023-03-10T01:53:19.190Z,99116.59
2023-03-10T01:55:52.540Z,99129.91
2023-03-10T01:58:25.620Z,99130.50
2023-03-10T02:00:55.718Z,99147.25
2023-03-10T02:03:25.835Z,99143.78
2023-03-10T02:05:57.485Z,99141.34
2023-03-10T02:08:28.779Z,99145.94
2023-03-10T02:10:57.911Z,99139.47
2023-03-10T02:13:27.807Z,99154.38
2023-03-10T02:15:56.239Z,99154.09
2023-03-10T02:18:24.922Z,99162.16
2023-03-10T02:21:01.149Z,99160.69
2023-03-10T02:23:35.596Z,99150.59
2023-03-10T02:26:11.477Z,99157.16
2023-03-10T02:28:41.131Z,99162.28
2023-03-10T02:31:10.234Z,99153.63
2023-03-10T02:33:38.613Z,99161.53
2023-03-10T02:36:14.832Z,99168.28
2023-03-10T02:38:43.175Z,99178.31
2023-03-10T02:41:20.728Z,99198.25
2023-03-10T02:43:50.971Z,99203.34
2023-03-10T02:46:20.098Z,99210.59
2023-03-10T02:48:48.553Z,99223.72
2023-03-10T02:51:22.675Z,99237.94
2023-03-10T02:53:50.924Z,99266.66
2023-03-10T02:56:19.571Z,99263.38
2023-03-10T02:58:47.814Z,99279.25
2023-03-10T03:01:17.501Z,99286.47
2023-03-10T03:03:45.953Z,99303.53
2023-03-10T03:06:14.854Z,99281.91
2023-03-10T03:08:43.223Z,99292.16
2023-03-10T03:11:11.676Z,99300.63
2023-03-10T03:13:39.763Z,99315.47
2023-03-10T03:16:08.911Z,99340.84
2023-03-10T03:18:39.550Z,99335.66
2023-03-10T03:21:08.610Z,99345.75
2023-03-10T03:23:36.883Z,99346.28
2023-03-10T03:26:05.627Z,99349.19
2023-03-10T03:28:33.870Z,99349.44
2023-03-10T03:31:02.826Z,99359.97
2023-03-10T03:33:31.025Z,99363.53
2023-03-10T03:36:00.646Z,99358.16
2023-03-10T03:38:28.973Z,99374.13
2023-03-10T03:40:57.162Z,99376.44
2023-03-10T03:43:27.651Z,99385.88
2023-03-10T03:45:55.920Z,99398.47
2023-03-10T03:48:24.114Z,99406.94
2023-03-10T03:50:52.704Z,99415.69
2023-03-10T03:53:22.446Z,99425.81
2023-03-10T03:55:51.439Z,99419.66
2023-03-10T03:58:19.796Z,99434.69
2023-03-10T04:00:49.215Z,99441.50
2023-03-10T04:03:19.200Z,99451.06
2023-03-10T04:05:47.458Z,99465.16
2023-03-10T04:08:16.120Z,99472.84
2023-03-10T04:10:52.181Z,99482.66
2023-03-10T04:13:20.520Z,99484.44
2023-03-10T04:15:48.794Z,99494.69
2023-03-10T04:18:18.486Z,99506.16
2023-03-10T04:20:46.719Z,99514.91
2023-03-10T04:23:15.780Z,99518.19
2023-03-10T04:25:45.425Z,99532.13
2023-03-10T04:28:13.753Z,99543.19
2023-03-10T04:30:44.063Z,99547.69
2023-03-10T04:33:13.698Z,99558.34
2023-03-10T04:35:43.133Z,99557.81
2023-03-10T04:38:11.703Z,99561.63
2023-03-10T04:40:39.825Z,99569.84
2023-03-10T04:43:09.445Z,99587.03
2023-03-10T04:45:37.672Z,99592.47
2023-03-10T04:48:05.902Z,99612.44
2023-03-10T04:50:34.079Z,99626.38
2023-03-10T04:53:02.266Z,99635.53
2023-03-10T04:55:30.498Z,99645.75
2023-03-10T04:57:58.697Z,99649.06
2023-03-10T05:00:28.373Z,99660.53
2023-03-10T05:02:56.939Z,99665.47
2023-03-10T05:05:25.127Z,99675.44
2023-03-10T05:07:53.210Z,99665.97
2023-03-10T05:10:21.539Z,99674.31
2023-03-10T05:12:49.598Z,99682.94
2023-03-10T05:15:17.955Z,99684.16
2023-03-10T05:17:49.944Z,99683.88
2023-03-10T05:20:18.888Z,99700.50
2023-03-10T05:22:47.129Z,99710.78
2023-03-10T05:25:15.449Z,99723.88
2023-03-10T05:27:43.646Z,99731.25
2023-03-10T05:30:15.576Z,99733.84
2023-03-10T05:32:43.985Z,99739.50
2023-03-10T05:35:14.837Z,99755.50
2023-03-10T05:37:44.959Z,99749.19
2023-03-10T05:40:16.486Z,99771.50
2023-03-10T05:42:44.634Z,99744.31
2023-03-10T05:45:13.612Z,99751.13
2023-03-10T05:47:42.254Z,99753.44
2023-03-10T05:50:15.525Z,99758.38
2023-03-10T05:52:45.502Z,99763.56
2023-03-10T05:55:16.140Z,99777.53
2023-03-10T05:57:44.671Z,99772.19
2023-03-10T06:00:14.761Z,99784.50
2023-03-10T06:02:43.502Z,99793.66
2023-03-10T06:05:13.751Z,99779.31
2023-03-10T06:07:43.517Z,99782.88
2023-03-10T06:10:12.662Z,99784.66
2023-03-10T06:12:40.895Z,99790.28
2023-03-10T06:15:10.096Z,99790.28
2023-03-10T06:17:38.183Z,99802.56
2023-03-10T06:20:07.318Z,99800.09
2023-03-10T06:22:35.588Z,99812.94
2023-03-10T06:25:05.662Z,99834.28
2023-03-10T06:27:34.201Z,99841.53
2023-03-10T06:30:02.340Z,99848.63
2023-03-10T06:32:30.508Z,99860.38
2023-03-10T06:35:00.418Z,99863.91
2023-03-10T06:37:28.679Z,99886.47
2023-03-10T06:39:56.852Z,99883.88
2023-03-10T06:42:26.554Z,99893.16
2023-03-10T06:44:55.994Z,99896.44
2023-03-10T06:47:24.129Z,99907.63
2023-03-10T06:49:54.809Z,99922.91
2023-03-10T06:52:23.135Z,99944.66
2023-03-10T06:54:51.353Z,99948.50
2023-03-10T06:57:21.087Z,99954.69
2023-03-10T06:59:53.691Z,99965.38
2023-03-10T07:02:21.812Z,99974.81
2023-03-10T07:04:49.980Z,99968.69
2023-03-10T07:07:18.223Z,99968.78
2023-03-10T07:09:47.098Z,99970.56
2023-03-10T07:12:15.273Z,99963.59
2023-03-10T07:14:43.544Z,99965.38
2023-03-10T07:17:13.266Z,99968.69
2023-03-10T07:19:41.579Z,99975.81
2023-03-10T07:22:11.332Z,99984.31
2023-03-10T07:24:39.502Z,99982.53
2023-03-10T07:27:07.703Z,99983.47
2023-03-10T07:29:36.104Z,99981.81
2023-03-10T07:32:04.522Z,99992.22
2023-03-10T07:34:34.320Z,99996.59
2023-03-10T07:37:02.382Z,100001.25
2023-03-10T07:39:30.547Z,100009.38
2023-03-10T07:42:00.116Z,100030.78
2023-03-10T07:44:28.326Z,100039.97
2023-03-10T07:46:56.467Z,100056.78
2023-03-10T07:49:24.641Z,100066.66
2023-03-10T07:51:54.311Z,100076.78
2023-03-10T07:54:22.578Z,100088.53
2023-03-10T07:56:51.218Z,100104.13
2023-03-10T07:59:19.583Z,100101.94
2023-03-10T08:01:47.721Z,100113.69
2023-03-10T08:04:17.481Z,100124.47
2023-03-10T08:06:47.536Z,100126.91
2023-03-10T08:09:17.466Z,100126.53
2023-03-10T08:11:45.631Z,100126.69
2023-03-10T08:14:13.980Z,100130.69
2023-03-10T08:16:42.187Z,100148.59
2023-03-10T08:19:10.379Z,100156.13
2023-03-10T08:21:38.889Z,100158.34
2023-03-10T08:24:07.410Z,100169.94
2023-03-10T08:26:37.749Z,100190.63
2023-03-10T08:29:05.974Z,100182.13
2023-03-10T08:31:34.241Z,100186.00
2023-03-10T08:34:02.457Z,100189.84
2023-03-10T08:36:32.054Z,100197.66
2023-03-10T08:39:02.434Z,100226.97
2023-03-10T08:41:32.908Z,100219.84
2023-03-10T08:44:03.282Z,100227.91
2023-03-10T08:46:34.807Z,100221.97
2023-03-10T08:49:03.191Z,100219.34
2023-03-10T08:51:31.365Z,100226.06
2023-03-10T08:53:59.666Z,100229.03
2023-03-10T08:56:27.909Z,100230.69
2023-03-10T08:59:00.672Z,100225.25
2023-03-10T09:01:32.347Z,100238.91
2023-03-10T09:04:01.395Z,100244.13
2023-03-10T09:06:29.946Z,100256.75
2023-03-10T09:08:58.389Z,100262.28
2023-03-10T09:11:29.291Z,100261.13
2023-03-10T09:13:57.488Z,100257.88
2023-03-10T09:16:26.467Z,100255.03
2023-03-10T09:18:56.107Z,100267.41
2023-03-10T09:21:24.582Z,100261.53
2023-03-10T09:23:54.011Z,100260.69
2023-03-10T09:26:23.128Z,100252.00
2023-03-10T09:28:54.192Z,100246.28
2023-03-10T09:31:26.833Z,100257.25
2023-03-10T09:33:56.394Z,100251.09
2023-03-10T09:36:24.644Z,100259.91
2023-03-10T09:38:52.772Z,100265.81
2023-03-10T09:41:46.378Z,100265.25
2023-03-10T09:44:26.073Z,100273.50
2023-03-10T09:47:07.536Z,100277.91
2023-03-10T09:49:39.481Z,100272.94
2023-03-10T09:52:21.054Z,100269.94
2023-03-10T09:54:58.934Z,100262.84
2023-03-10T09:57:27.250Z,100250.47
2023-03-10T10:00:00.254Z,100246.63
2023-03-10T10:02:33.343Z,100242.38
2023-03-10T10:05:08.470Z,100241.41
2023-03-10T10:07:44.912Z,100243.03
2023-03-10T10:10:18.804Z,100244.84
2023-03-10T10:12:48.334Z,100253.22
2023-03-10T10:15:18.558Z,100251.59
2023-03-10T10:18:05.548Z,100259.09
2023-03-10T10:20:47.325Z,100263.25
2023-03-10T10:23:21.198Z,100255.41
2023-03-10T10:25:50.435Z,100259.25
2023-03-10T10:28:24.966Z,100265.84
2023-03-10T10:30:53.186Z,100275.03
2023-03-10T10:33:21.618Z,100277.09
2023-03-10T10:36:05.590Z,100278.88
2023-03-10T10:38:34.060Z,100295.47
2023-03-10T10:41:07.278Z,100312.75
2023-03-10T10:43:42.064Z,100309.59
2023-03-10T10:46:11.376Z,100319.06
2023-03-10T10:48:43.111Z,100330.03
2023-03-10T10:51:24.694Z,100345.09
2023-03-10T10:53:52.732Z,100360.31
2023-03-10T10:56:21.208Z,100379.97
2023-03-10T10:59:07.680Z,100386.97
2023-03-10T11:01:50.832Z,100393.69
2023-03-10T11:04:19.570Z,100407.72
2023-03-10T11:06:49.682Z,100411.13
2023-03-10T11:09:20.138Z,100429.16
2023-03-10T11:12:01.955Z,100431.50
2023-03-10T11:14:42.217Z,100445.78
2023-03-10T11:17:16.643Z,100461.84
2023-03-10T11:19:58.863Z,100486.59
2023-03-10T11:22:41.100Z,100499.38
2023-03-10T11:25:28.141Z,100521.50
2023-03-10T11:28:10.884Z,100520.38
2023-03-10T11:30:42.259Z,100530.56
2023-03-10T11:33:22.841Z,100552.19
2023-03-10T11:35:53.558Z,100568.00
2023-03-10T11:38:42.456Z,100584.81
2023-03-10T11:41:16.006Z,100606.97
2023-03-10T11:43:55.837Z,100610.81
2023-03-10T11:46:32.472Z,100629.09
2023-03-10T11:49:08.379Z,100650.16
2023-03-10T11:51:40.653Z,100657.72
2023-03-10T11:54:16.769Z,100661.88
2023-03-10T11:56:46.009Z,100672.31
2023-03-10T11:59:19.165Z,100686.19
2023-03-10T12:01:51.568Z,100702.19
2023-03-10T12:04:26.107Z,100715.53
2023-03-10T12:06:58.931Z,100724.38
2023-03-10T12:09:36.972Z,100726.25
2023-03-10T12:12:06.589Z,100722.00
2023-03-10T12:14:37.023Z,100709.31
2023-03-10T12:17:06.261Z,100705.28
2023-03-10T12:19:54.411Z,100688.66
2023-03-10T12:22:26.334Z,100691.81
2023-03-10T12:24:55.873Z,100688.69
2023-03-10T12:27:23.963Z,100688.53
2023-03-10T12:29:52.184Z,100696.00
2023-03-10T12:32:48.520Z,100711.13
2023-03-10T12:35:44.597Z,100728.22
2023-03-10T12:38:33.097Z,100722.16
2023-03-10T12:41:03.341Z,100730.13
2023-03-10T12:44:08.529Z,100728.22
2023-03-10T12:46:43.253Z,100731.81
2023-03-10T12:49:29.058Z,100746.38
2023-03-10T12:52:08.658Z,100750.38
2023-03-10T12:54:49.148Z,100755.75
2023-03-10T12:57:24.956Z,100767.31
2023-03-10T13:00:00.449Z,100760.41
2023-03-10T13:02:37.461Z,100762.06
2023-03-10T13:05:08.115Z,100768.81
2023-03-10T13:07:36.873Z,100783.38
2023-03-10T13:10:06.528Z,100778.31
2023-03-10T13:12:48.189Z,100779.53
2023-03-10T13:15:23.298Z,100784.91
2023-03-10T13:17:55.340Z,100776.34
2023-03-10T13:20:24.523Z,100769.56
2023-03-10T13:22:57.573Z,100782.41
2023-03-10T13:25:27.037Z,100786.09
2023-03-10T13:27:57.675Z,100780.41
2023-03-10T13:30:28.234Z,100788.69
2023-03-10T13:32:57.786Z,100810.03
2023-03-10T13:35:30.597Z,100813.75
2023-03-10T13:38:06.457Z,100812.63
2023-03-10T13:40:34.927Z,100813.09
2023-03-10T13:43:07.521Z,100808.34
2023-03-10T13:45:35.771Z,100803.88
2023-03-10T13:48:06.469Z,100806.59
2023-03-10T13:50:34.711Z,100814.72
2023-03-10T13:53:04.628Z,100816.91
2023-03-10T13:55:40.825Z,100809.94
2023-03-10T13:58:14.831Z,100816.53
2023-03-10T14:00:50.592Z,100813.78
2023-03-10T14:03:19.121Z,100816.53
2023-03-10T14:05:49.108Z,100825.56
2023-03-10T14:08:22.588Z,100814.38
2023-03-10T14:10:50.703Z,100832.06
2023-03-10T14:13:45.617Z,100823.81
2023-03-10T14:16:13.824Z,100819.00
2023-03-10T14:18:43.936Z,100811.03
2023-03-10T14:21:27.200Z,100807.34
2023-03-10T14:23:57.312Z,100806.81
2023-03-10T14:26:25.455Z,100823.09
2023-03-10T14:28:55.010Z,100826.81
2023-03-10T14:31:25.842Z,100828.47
2023-03-10T14:33:53.968Z,100835.34
2023-03-10T14:36:22.141Z,100838.16
2023-03-10T14:38:50.352Z,100833.78
2023-03-10T14:41:24.198Z,100835.19
2023-03-10T14:43:54.414Z,100836.28
2023-03-10T14:46:22.787Z,100840.47
2023-03-10T14:48:51.279Z,100834.94
2023-03-10T14:51:34.446Z,100840.09
2023-03-10T14:54:04.105Z,100837.19
2023-03-10T14:56:33.861Z,100828.69
2023-03-10T14:59:03.596Z,100842.19
2023-03-10T15:01:32.185Z,100842.63
2023-03-10T15:04:00.289Z,100840.69
2023-03-10T15:06:28.823Z,100849.09
2023-03-10T15:08:56.976Z,100847.19
2023-03-10T15:11:36.511Z,100854.63
2023-03-10T15:14:15.014Z,100849.63
2023-03-10T15:16:43.526Z,100842.06
2023-03-10T15:19:18.547Z,100823.75
2023-03-10T15:21:46.725Z,100816.53
2023-03-10T15:24:14.963Z,100811.03
2023-03-10T15:26:43.395Z,100800.97
2023-03-10T15:29:15.398Z,100802.78
2023-03-10T15:31:43.670Z,100802.31
2023-03-10T15:34:11.913Z,100797.50
2023-03-10T15:36:40.362Z,100803.84
2023-03-10T15:39:10.969Z,100802.31
2023-03-10T15:41:41.557Z,100801.78
2023-03-10T15:44:10.234Z,100796.94
2023-03-10T15:46:40.082Z,100794.72
2023-03-10T15:49:08.420Z,100793.91
2023-03-10T15:51:36.546Z,100794.41
2023-03-10T15:54:04.842Z,100802.41
2023-03-10T15:56:34.130Z,100806.09
2023-03-10T15:59:02.459Z,100809.56
2023-03-10T16:01:30.640Z,100810.63
2023-03-10T16:04:01.940Z,100820.53
2023-03-10T16:06:30.187Z,100816.91
2023-03-10T16:08:58.431Z,100816.78
2023-03-10T16:11:26.905Z,100818.59
2023-03-10T16:13:55.107Z,100817.19
2023-03-10T16:16:24.325Z,100819.91
2023-03-10T16:18:52.897Z,100818.25
2023-03-10T16:21:23.007Z,100818.16
2023-03-10T16:23:51.232Z,100814.16
2023-03-10T16:26:22.157Z,100814.16
2023-03-10T16:28:53.142Z,100814.16
2023-03-10T16:31:23.341Z,100807.38
2023-03-10T16:33:52.858Z,100804.91
2023-03-10T16:36:24.467Z,100805.97
2023-03-10T16:38:53.744Z,100808.75
2023-03-10T16:41:23.302Z,100813.25
2023-03-10T16:43:51.924Z,100804.72
2023-03-10T16:46:25.552Z,100804.03
2023-03-10T16:48:55.536Z,100800.56
2023-03-10T16:51:28.644Z,100795.78
2023-03-10T16:53:59.070Z,100805.66
2023-03-10T16:56:29.184Z,100804.94
2023-03-10T16:58:58.252Z,100804.94
2023-03-10T17:01:26.862Z,100793.66
2023-03-10T17:03:56.387Z,100789.66
2023-03-10T17:06:29.592Z,100797.75
2023-03-10T17:09:00.823Z,100788.38
2023-03-10T17:11:31.753Z,100798.00
2023-03-10T17:14:01.916Z,100795.16
2023-03-10T17:16:31.990Z,100802.84
2023-03-10T17:19:02.127Z,100806.53
2023-03-10T17:21:36.091Z,100805.41
2023-03-10T17:24:05.173Z,100808.53
2023-03-10T17:26:33.509Z,100823.38
2023-03-10T17:29:01.637Z,100832.13
2023-03-10T17:31:30.948Z,100823.75
2023-03-10T17:34:01.450Z,100823.16
2023-03-10T17:36:31.507Z,100829.47
2023-03-10T17:39:01.156Z,100831.50
2023-03-10T17:41:31.417Z,100829.00
2023-03-10T17:43:59.893Z,100838.75
2023-03-10T17:46:29.841Z,100837.50
2023-03-10T17:49:00.322Z,100838.94
2023-03-10T17:51:30.219Z,100840.03
2023-03-10T17:54:01.777Z,100835.03
2023-03-10T17:56:30.486Z,100832.69
2023-03-10T17:59:01.980Z,100820.72
2023-03-10T18:01:31.727Z,100812.56
2023-03-10T18:04:01.547Z,100814.56
2023-03-10T18:06:32.274Z,100814.84
2023-03-10T18:09:05.762Z,100814.25
2023-03-10T18:11:35.400Z,100822.44
2023-03-10T18:14:04.060Z,100834.78
2023-03-10T18:16:34.893Z,100835.84
2023-03-10T18:19:04.182Z,100846.53
2023-03-10T18:21:32.413Z,100841.56
2023-03-10T18:24:02.295Z,100845.13
2023-03-10T18:26:31.118Z,100847.16
2023-03-10T18:28:59.670Z,100849.03
2023-03-10T18:31:30.056Z,100848.56
2023-03-10T18:33:58.397Z,100857.44
2023-03-10T18:36:27.014Z,100852.50
2023-03-10T18:38:56.538Z,100849.03
2023-03-10T18:41:29.474Z,100842.31
2023-03-10T18:43:57.680Z,100843.50
2023-03-10T18:46:26.033Z,100858.44
2023-03-10T18:48:56.136Z,100851.91
2023-03-10T18:51:25.185Z,100861.88
2023-03-10T18:53:53.469Z,100850.88
2023-03-10T18:56:22.582Z,100856.31
2023-03-10T18:58:52.150Z,100859.06
2023-03-10T19:01:20.368Z,100852.16
2023-03-10T19:03:48.563Z,100863.66
2023-03-10T19:06:20.577Z,100854.31
2023-03-10T19:08:48.685Z,100853.47
2023-03-10T19:11:22.702Z,100850.19
2023-03-10T19:13:52.364Z,100849.22
2023-03-10T19:16:21.478Z,100843.88
2023-03-10T19:18:49.627Z,100846.38
2023-03-10T19:21:17.860Z,100843.66
2023-03-10T19:23:46.529Z,100851.25
2023-03-10T19:26:15.594Z,100841.50
2023-03-10T19:28:44.603Z,100840.44
2023-03-10T19:31:15.730Z,100835.13
2023-03-10T19:33:43.882Z,100834.97
2023-03-10T19:36:13.827Z,100838.31
2023-03-10T19:38:43.290Z,100835.72
2023-03-10T19:41:17.973Z,100830.72
2023-03-10T19:43:47.390Z,100820.44
2023-03-10T19:46:17.619Z,100817.94
2023-03-10T19:48:46.088Z,100814.63
2023-03-10T19:51:21.889Z,100809.66
2023-03-10T19:53:52.002Z,100808.00
2023-03-10T19:56:21.251Z,100796.88
2023-03-10T19:58:50.101Z,100795.19
2023-03-10T20:01:23.318Z,100792.84
2023-03-10T20:03:52.263Z,100799.94
2023-03-10T20:06:21.255Z,100801.03
2023-03-10T20:08:49.533Z,100803.72
2023-03-10T20:11:19.615Z,100802.22
2023-03-10T20:13:48.490Z,100794.63
2023-03-10T20:16:17.931Z,100792.97
2023-03-10T20:18:47.570Z,100796.63
2023-03-10T20:21:16.741Z,100794.28
2023-03-10T20:23:47.742Z,100791.81
2023-03-10T20:26:16.836Z,100799.72
2023-03-10T20:28:45.460Z,100785.19
2023-03-10T20:31:17.150Z,100781.75
2023-03-10T20:33:45.396Z,100782.00
2023-03-10T20:36:16.096Z,100788.84
2023-03-10T20:38:45.232Z,100788.84
2023-03-10T20:41:13.910Z,100792.41
2023-03-10T20:43:42.721Z,100782.13
2023-03-10T20:46:12.322Z,100783.88
2023-03-10T20:48:40.501Z,100783.16
2023-03-10T20:51:08.584Z,100784.22
2023-03-10T20:53:38.557Z,100788.59
2023-03-10T20:56:09.795Z,100784.56
2023-03-10T20:58:38.424Z,100775.25
2023-03-10T21:01:06.731Z,100779.03
2023-03-10T21:03:34.938Z,100772.41
2023-03-10T21:06:03.088Z,100767.31
2023-03-10T21:08:31.299Z,100771.69
2023-03-10T21:11:00.739Z,100772.53
2023-03-10T21:13:28.959Z,100768.38
2023-03-10T21:15:57.083Z,100764.13
2023-03-10T21:18:26.075Z,100764.25
2023-03-10T21:20:54.260Z,100764.25
2023-03-10T21:23:22.456Z,100776.53
2023-03-10T21:25:50.614Z,100767.81
2023-03-10T21:28:20.603Z,100768.72
2023-03-10T21:30:48.876Z,100766.13
2023-03-10T21:33:17.052Z,100764.47
2023-03-10T21:35:45.237Z,100772.28
2023-03-10T21:38:13.554Z,100774.88
2023-03-10T21:40:41.748Z,100771.31
2023-03-10T21:43:11.054Z,100770.50
2023-03-10T21:45:41.187Z,100772.28
2023-03-10T21:48:14.696Z,100773.09
2023-03-10T21:50:43.189Z,100766.13
2023-03-10T21:53:11.610Z,100761.50
2023-03-10T21:55:39.949Z,100770.88
2023-03-10T21:58:08.048Z,100767.31
2023-03-10T22:00:37.279Z,100769.91
2023-03-10T22:03:07.156Z,100767.09
2023-03-10T22:05:35.304Z,100764.72
2023-03-10T22:08:03.580Z,100757.13
2023-03-10T22:10:31.729Z,100756.19
2023-03-10T22:12:59.989Z,100758.78
2023-03-10T22:15:28.634Z,100748.38
2023-03-10T22:17:56.814Z,100746.50
2023-03-10T22:20:28.352Z,100743.06
2023-03-10T22:22:57.458Z,100739.63
2023-03-10T22:25:26.321Z,100740.34
2023-03-10T22:27:56.606Z,100733.59
2023-03-10T22:30:26.433Z,100733.34
2023-03-10T22:32:54.881Z,100729.22
2023-03-10T22:35:23.977Z,100735.34
2023-03-10T22:37:54.189Z,100734.66
2023-03-10T22:40:25.120Z,100735.63
2023-03-10T22:42:53.645Z,100723.91
2023-03-10T22:45:23.723Z,100722.34
2023-03-10T22:47:54.175Z,100718.09
2023-03-10T22:50:25.390Z,100719.97
2023-03-10T22:52:55.165Z,100724.50
2023-03-10T22:55:25.891Z,100720.22
2023-03-10T22:57:56.688Z,100716.91
2023-03-10T23:00:24.906Z,100724.00
2023-03-10T23:02:54.105Z,100721.75
2023-03-10T23:05:22.893Z,100721.03
2023-03-10T23:07:51.441Z,100710.88
2023-03-10T23:10:24.053Z,100709.25
2023-03-10T23:12:52.642Z,100708.75
2023-03-10T23:15:25.851Z,100717.38
2023-03-10T23:17:54.542Z,100724.47
2023-03-10T23:20:24.295Z,100713.09
2023-03-10T23:22:52.665Z,100717.47
2023-03-10T23:25:25.000Z,100714.06
2023-03-10T23:27:53.219Z,100713.09
2023-03-10T23:30:22.082Z,100704.47
2023-03-10T23:32:51.777Z,100706.16
2023-03-10T23:35:22.464Z,100708.16
2023-03-10T23:37:50.655Z,100699.41
2023-03-10T23:40:20.894Z,100702.97
2023-03-10T23:42:50.399Z,100708.03
2023-03-10T23:45:21.537Z,100698.44
2023-03-10T23:47:50.873Z,100700.84
2023-03-10T23:50:22.768Z,100697.88
2023-03-10T23:52:51.408Z,100696.69
2023-03-10T23:55:21.638Z,100703.56
2023-03-10T23:57:51.283Z,100695.75
